createdAt,value
2022-09-20T00:02:51.430Z,23.60
2022-09-20T00:05:52.932Z,23.73
2022-09-20T00:08:55.120Z,23.35
2022-09-20T00:11:56.789Z,25.00
2022-09-20T00:14:58.443Z,22.70
2022-09-20T00:18:00.816Z,24.33
2022-09-20T00:21:03.304Z,24.15
2022-09-20T00:24:05.885Z,27.00
2022-09-20T00:27:07.452Z,18.45
2022-09-20T00:30:10.030Z,26.77
2022-09-20T00:33:11.592Z,29.98
2022-09-20T00:36:13.519Z,26.33
2022-09-20T00:39:16.468Z,18.77
2022-09-20T00:42:18.028Z,27.27
2022-09-20T00:45:27.672Z,23.25
2022-09-20T00:48:31.944Z,26.58
2022-09-20T00:51:37.553Z,29.08
2022-09-20T00:54:39.153Z,23.05
2022-09-20T00:57:42.497Z,24.90
2022-09-20T01:00:45.630Z,28.02
2022-09-20T01:03:48.843Z,22.02
2022-09-20T01:06:53.934Z,25.05
2022-09-20T01:09:55.710Z,29.05
2022-09-20T01:12:57.376Z,24.88
2022-09-20T01:16:01.124Z,34.33
2022-09-20T01:19:15.011Z,25.23
2022-09-20T01:22:25.228Z,20.67
2022-09-20T01:25:57.876Z,25.08
2022-09-20T01:29:15.383Z,23.55
2022-09-20T01:32:22.453Z,17.10
2022-09-20T01:35:28.651Z,26.20
2022-09-20T01:38:51.896Z,21.58
2022-09-20T01:42:09.658Z,21.55
2022-09-20T01:45:25.757Z,19.98
2022-09-20T01:48:41.444Z,28.77
2022-09-20T01:52:17.171Z,25.60
2022-09-20T01:55:37.228Z,22.10
2022-09-20T01:59:24.507Z,21.95
2022-09-20T02:02:59.559Z,29.70
2022-09-20T02:06:39.163Z,32.42
2022-09-20T02:10:10.832Z,34.22
2022-09-20T02:13:32.413Z,18.52
2022-09-20T02:17:10.449Z,27.00
2022-09-20T02:20:15.887Z,25.60
2022-09-20T02:23:40.547Z,30.38
2022-09-20T02:27:26.048Z,34.03
2022-09-20T02:30:42.692Z,33.50
2022-09-20T02:34:20.205Z,29.65
2022-09-20T02:37:36.155Z,32.38
2022-09-20T02:41:05.920Z,25.83
2022-09-20T02:44:22.030Z,30.60
2022-09-20T02:47:39.629Z,25.10
2022-09-20T02:51:03.956Z,22.90
2022-09-20T02:54:22.600Z,36.63
2022-09-20T02:57:36.412Z,26.52
2022-09-20T03:00:53.612Z,40.08
2022-09-20T03:04:26.058Z,30.23
2022-09-20T03:08:16.103Z,33.08
2022-09-20T03:11:35.493Z,27.77
2022-09-20T03:14:57.345Z,23.98
2022-09-20T03:18:06.288Z,31.90
2022-09-20T03:21:40.211Z,28.63
2022-09-20T03:24:59.928Z,27.10
2022-09-20T03:28:19.781Z,33.47
2022-09-20T03:31:36.564Z,28.73
2022-09-20T03:35:08.036Z,30.83
2022-09-20T03:38:34.215Z,24.80
2022-09-20T03:42:11.942Z,32.90
2022-09-20T03:45:41.051Z,24.67
2022-09-20T03:49:27.415Z,31.17
2022-09-20T03:52:44.605Z,24.60
2022-09-20T03:56:06.421Z,28.00
2022-09-20T04:00:01.668Z,29.58
2022-09-20T04:03:19.790Z,29.20
2022-09-20T04:06:51.971Z,23.90
2022-09-20T04:10:15.893Z,33.58
2022-09-20T04:13:39.506Z,24.75
2022-09-20T04:16:49.510Z,25.52
2022-09-20T04:20:07.984Z,24.90
2022-09-20T04:23:32.787Z,28.15
2022-09-20T04:26:40.753Z,18.77
2022-09-20T04:30:05.998Z,26.75
2022-09-20T04:33:29.813Z,30.08
2022-09-20T04:36:59.285Z,22.50
2022-09-20T04:40:34.071Z,28.58
2022-09-20T04:43:51.210Z,23.65
2022-09-20T04:47:31.992Z,30.35
2022-09-20T04:51:00.609Z,23.25
2022-09-20T04:54:41.966Z,25.00
2022-09-20T04:58:05.104Z,25.92
2022-09-20T05:01:17.206Z,21.02
2022-09-20T05:05:10.051Z,30.85
2022-09-20T05:08:30.383Z,22.85
2022-09-20T05:12:01.081Z,24.25
2022-09-20T05:15:21.024Z,30.00
2022-09-20T05:18:25.394Z,20.13
2022-09-20T05:21:56.232Z,21.48
2022-09-20T05:28:13.364Z,24.67
2022-09-20T05:31:49.509Z,25.77
2022-09-20T05:35:03.392Z,29.67
2022-09-20T05:38:40.790Z,27.80
2022-09-20T05:41:56.711Z,23.27
2022-09-20T05:45:32.177Z,24.83
2022-09-20T05:48:56.065Z,29.10
2022-09-20T05:52:29.136Z,24.50
2022-09-20T05:56:13.138Z,28.30
2022-09-20T05:59:20.615Z,29.70
2022-09-20T06:02:51.544Z,26.45
2022-09-20T06:09:08.763Z,25.33
2022-09-20T06:12:35.619Z,24.05
2022-09-20T06:16:04.472Z,33.00
2022-09-20T06:19:40.303Z,23.02
2022-09-20T06:22:50.826Z,25.25
2022-09-20T06:26:14.809Z,26.17
2022-09-20T06:29:33.049Z,46.90
2022-09-20T06:32:34.690Z,33.28
2022-09-20T06:35:49.264Z,30.75
2022-09-20T06:39:21.743Z,33.45
2022-09-20T06:42:27.031Z,34.47
2022-09-20T06:45:28.953Z,35.33
2022-09-20T06:48:31.933Z,20.75
2022-09-20T06:51:39.999Z,27.45
2022-09-20T06:54:46.089Z,27.25
2022-09-20T06:57:47.766Z,36.38
2022-09-20T07:00:49.409Z,24.92
2022-09-20T07:03:51.000Z,24.52
2022-09-20T07:06:59.504Z,34.83
2022-09-20T07:10:01.171Z,29.00
2022-09-20T07:13:03.025Z,30.63
2022-09-20T07:16:07.113Z,27.55
2022-09-20T07:19:08.702Z,27.45
2022-09-20T07:22:11.077Z,31.70
2022-09-20T07:25:12.679Z,31.38
2022-09-20T07:28:14.230Z,29.30
2022-09-20T07:31:17.845Z,24.02
2022-09-20T07:34:20.172Z,27.92
2022-09-20T07:37:22.329Z,17.65
2022-09-20T07:40:24.250Z,28.25
2022-09-20T07:43:26.227Z,20.98
2022-09-20T07:46:27.773Z,20.77
2022-09-20T07:49:32.505Z,21.10
2022-09-20T07:52:34.044Z,18.73
2022-09-20T07:55:35.611Z,23.38
2022-09-20T07:58:37.451Z,22.63
2022-09-20T08:01:39.212Z,16.85
2022-09-20T08:04:40.840Z,12.95
2022-09-20T08:07:42.432Z,18.48
2022-09-20T08:10:46.032Z,14.88
2022-09-20T08:14:07.057Z,14.60
2022-09-20T08:17:11.301Z,11.88
2022-09-20T08:20:12.906Z,11.75
2022-09-20T08:23:23.383Z,13.15
2022-09-20T08:26:27.250Z,11.20
2022-09-20T08:29:28.775Z,16.88
2022-09-20T08:32:30.327Z,18.20
2022-09-20T08:35:38.146Z,21.60
2022-09-20T08:42:12.747Z,22.77
2022-09-20T08:45:33.550Z,18.10
2022-09-20T08:48:36.015Z,25.77
2022-09-20T08:51:39.964Z,17.23
2022-09-20T08:54:43.406Z,10.98
2022-09-20T08:57:53.319Z,13.93
2022-09-20T09:00:59.921Z,19.40
2022-09-20T09:04:16.651Z,17.27
2022-09-20T09:07:22.296Z,14.30
2022-09-20T09:10:23.972Z,12.25
2022-09-20T09:13:34.368Z,14.70
2022-09-20T09:16:36.502Z,11.45
2022-09-20T09:19:54.483Z,19.13
2022-09-20T09:23:00.782Z,14.65
2022-09-20T09:26:05.426Z,12.40
2022-09-20T09:29:24.200Z,12.65
2022-09-20T09:32:32.669Z,11.23
2022-09-20T09:35:36.021Z,11.32
2022-09-20T09:38:40.065Z,11.93
2022-09-20T09:41:43.172Z,8.07
2022-09-20T09:44:50.105Z,8.30
2022-09-20T09:47:52.020Z,12.05
2022-09-20T09:51:08.994Z,12.75
2022-09-20T09:54:19.964Z,9.93
2022-09-20T09:57:45.585Z,13.95
2022-09-20T10:00:48.180Z,9.40
2022-09-20T10:04:05.279Z,10.23
2022-09-20T10:07:22.195Z,15.55
2022-09-20T10:10:41.367Z,11.93
2022-09-20T10:13:56.239Z,13.48
2022-09-20T10:17:06.207Z,10.68
2022-09-20T10:20:28.509Z,8.57
2022-09-20T10:24:04.895Z,11.43
2022-09-20T10:27:24.759Z,10.38
2022-09-20T10:30:37.193Z,10.57
2022-09-20T10:34:03.211Z,15.00
2022-09-20T10:37:27.455Z,11.35
2022-09-20T10:40:58.857Z,13.90
2022-09-20T10:44:06.062Z,15.88
2022-09-20T10:47:28.803Z,10.70
2022-09-20T10:50:49.033Z,11.45
2022-09-20T10:54:29.635Z,7.50
2022-09-20T10:57:44.432Z,4.70
2022-09-20T11:01:10.063Z,7.40
2022-09-20T11:04:33.595Z,9.20
2022-09-20T11:07:58.733Z,8.63
2022-09-20T11:11:12.393Z,8.85
2022-09-20T11:14:19.192Z,8.68
2022-09-20T11:17:31.784Z,4.03
2022-09-20T11:20:44.302Z,6.82
2022-09-20T11:24:06.237Z,8.45
2022-09-20T11:27:15.439Z,5.03
2022-09-20T11:30:23.257Z,8.07
2022-09-20T11:33:41.278Z,5.93
2022-09-20T11:37:01.231Z,9.13
2022-09-20T11:40:20.293Z,4.80
2022-09-20T11:43:24.026Z,7.10
2022-09-20T11:46:29.585Z,9.48
2022-09-20T11:50:02.966Z,7.65
2022-09-20T11:53:26.306Z,9.30
2022-09-20T11:56:32.468Z,6.78
2022-09-20T11:59:43.385Z,10.38
2022-09-20T12:02:48.406Z,5.70
2022-09-20T12:06:04.155Z,8.75
2022-09-20T12:09:22.868Z,5.60
2022-09-20T12:12:41.441Z,8.43
2022-09-20T12:15:43.112Z,8.55
2022-09-20T12:18:47.661Z,10.25
2022-09-20T12:22:01.124Z,5.82
2022-09-20T12:25:39.033Z,6.45
2022-09-20T12:28:42.851Z,7.30
2022-09-20T12:31:48.576Z,6.30
2022-09-20T12:34:50.247Z,5.50
2022-09-20T12:37:51.814Z,3.83
2022-09-20T12:41:11.562Z,6.93
2022-09-20T12:44:24.930Z,2.47
2022-09-20T12:47:29.384Z,3.00
2022-09-20T12:50:49.743Z,5.18
2022-09-20T12:54:06.439Z,8.25
2022-09-20T12:57:27.264Z,3.42
2022-09-20T13:00:37.986Z,8.27
2022-09-20T13:03:45.286Z,6.80
2022-09-20T13:07:07.273Z,10.02
2022-09-20T13:10:38.775Z,5.50
2022-09-20T13:13:51.586Z,3.85
2022-09-20T13:17:19.163Z,3.95
2022-09-20T13:20:29.862Z,5.00
2022-09-20T13:23:32.127Z,4.07
2022-09-20T13:26:41.435Z,3.13
2022-09-20T13:29:44.761Z,5.70
2022-09-20T13:32:47.736Z,7.30
2022-09-20T13:35:54.313Z,5.32
2022-09-20T13:38:57.909Z,5.43
2022-09-20T13:42:02.325Z,4.78
2022-09-20T13:45:04.884Z,4.53
2022-09-20T13:48:09.262Z,3.50
2022-09-20T13:51:27.898Z,4.72
2022-09-20T13:54:32.006Z,11.25
2022-09-20T13:57:34.713Z,3.72
2022-09-20T14:00:38.238Z,3.92
2022-09-20T14:03:40.010Z,7.53
2022-09-20T14:06:42.522Z,3.28
2022-09-20T14:09:45.077Z,6.03
2022-09-20T14:12:49.048Z,9.05
2022-09-20T14:15:50.707Z,6.30
2022-09-20T14:18:52.449Z,3.05
2022-09-20T14:21:54.787Z,3.55
2022-09-20T14:24:59.467Z,5.70
2022-09-20T14:28:18.925Z,6.07
2022-09-20T14:31:32.222Z,5.22
2022-09-20T14:34:38.434Z,5.82
2022-09-20T14:38:06.785Z,11.73
2022-09-20T14:41:08.436Z,9.40
2022-09-20T14:44:26.680Z,6.10
2022-09-20T14:47:36.978Z,10.25
2022-09-20T14:50:42.049Z,6.63
2022-09-20T14:53:45.503Z,7.47
2022-09-20T14:56:52.988Z,9.02
2022-09-20T14:59:57.056Z,6.45
2022-09-20T15:03:06.485Z,10.55
2022-09-20T15:06:12.361Z,7.65
2022-09-20T15:09:14.553Z,7.78
2022-09-20T15:12:19.010Z,5.75
2022-09-20T15:15:20.623Z,8.45
2022-09-20T15:18:28.685Z,8.05
2022-09-20T15:21:30.383Z,10.55
2022-09-20T15:24:31.917Z,8.50
2022-09-20T15:27:33.593Z,7.20
2022-09-20T15:30:36.076Z,4.65
2022-09-20T15:33:37.607Z,14.43
2022-09-20T15:36:40.312Z,8.73
2022-09-20T15:39:41.896Z,7.30
2022-09-20T15:42:45.801Z,10.23
2022-09-20T15:45:52.764Z,10.00
2022-09-20T15:48:55.355Z,6.28
2022-09-20T15:51:57.148Z,5.05
2022-09-20T15:55:00.223Z,11.75
2022-09-20T15:58:01.776Z,8.10
2022-09-20T16:01:08.386Z,4.50
2022-09-20T16:04:17.207Z,10.65
2022-09-20T16:07:18.835Z,8.13
2022-09-20T16:10:20.489Z,9.93
2022-09-20T16:13:23.103Z,17.40
2022-09-20T16:16:26.494Z,8.73
2022-09-20T16:19:30.359Z,9.70
2022-09-20T16:22:33.956Z,7.47
2022-09-20T16:25:36.054Z,6.05
2022-09-20T16:28:37.601Z,8.82
2022-09-20T16:31:49.995Z,8.63
2022-09-20T16:34:54.627Z,16.50
2022-09-20T16:37:57.565Z,11.43
2022-09-20T16:41:00.183Z,8.98
2022-09-20T16:44:02.034Z,7.43
2022-09-20T16:47:08.804Z,9.10
2022-09-20T16:50:11.885Z,11.25
2022-09-20T16:53:13.466Z,12.60
2022-09-20T16:56:22.888Z,10.10
2022-09-20T16:59:24.476Z,11.30
2022-09-20T17:02:26.016Z,10.48
2022-09-20T17:05:27.628Z,7.72
2022-09-20T17:08:29.231Z,14.25
2022-09-20T17:11:53.548Z,11.68
2022-09-20T17:14:55.119Z,15.13
2022-09-20T17:17:57.671Z,10.52
2022-09-20T17:21:07.074Z,14.15
2022-09-20T17:24:08.750Z,13.48
2022-09-20T17:27:10.764Z,8.27
2022-09-20T17:30:12.684Z,10.63
2022-09-20T17:33:14.390Z,10.20
2022-09-20T17:36:21.258Z,14.77
2022-09-20T17:39:23.547Z,12.68
2022-09-20T17:42:25.077Z,12.57
2022-09-20T17:45:26.621Z,17.48
2022-09-20T17:48:28.189Z,9.73
2022-09-20T17:51:38.362Z,10.38
2022-09-20T17:54:40.043Z,13.82
2022-09-20T17:57:41.656Z,14.63
2022-09-20T18:00:43.223Z,9.43
2022-09-20T18:03:46.414Z,8.43
2022-09-20T18:06:50.577Z,11.50
2022-09-20T18:09:52.098Z,13.82
2022-09-20T18:12:53.646Z,10.25
2022-09-20T18:15:55.204Z,9.30
2022-09-20T18:18:59.109Z,16.48
2022-09-20T18:22:04.205Z,13.93
2022-09-20T18:25:06.139Z,13.15
2022-09-20T18:28:07.667Z,12.45
2022-09-20T18:31:10.064Z,14.65
2022-09-20T18:34:17.918Z,15.02
2022-09-20T18:37:19.646Z,13.68
2022-09-20T18:40:22.910Z,21.30
2022-09-20T18:43:24.472Z,15.07
2022-09-20T18:46:29.226Z,14.70
2022-09-20T18:49:31.685Z,18.02
2022-09-20T18:52:38.556Z,20.10
2022-09-20T18:55:41.035Z,15.80
2022-09-20T18:58:44.584Z,20.48
2022-09-20T19:01:55.280Z,7.88
2022-09-20T19:05:12.890Z,15.80
2022-09-20T19:08:44.761Z,18.23
2022-09-20T19:11:51.677Z,12.43
2022-09-20T19:15:15.509Z,16.35
2022-09-20T19:18:51.708Z,15.50
2022-09-20T19:21:59.101Z,14.38
2022-09-20T19:25:25.607Z,23.15
2022-09-20T19:28:27.457Z,28.83
2022-09-20T19:31:31.703Z,23.00
2022-09-20T19:34:33.536Z,30.42
2022-09-20T19:38:01.206Z,32.95
2022-09-20T19:41:32.015Z,27.80
2022-09-20T19:47:44.950Z,22.75
2022-09-20T19:50:52.409Z,13.63
2022-09-20T19:53:55.325Z,21.02
2022-09-20T19:56:59.274Z,18.80
2022-09-20T20:00:01.149Z,21.05
2022-09-20T20:03:02.929Z,16.73
2022-09-20T20:06:14.017Z,20.10
2022-09-20T20:09:44.016Z,21.27
2022-09-20T20:13:24.779Z,26.43
2022-09-20T20:17:04.980Z,21.65
2022-09-20T20:20:22.394Z,18.52
2022-09-20T20:23:54.430Z,18.38
2022-09-20T20:26:55.962Z,18.60
2022-09-20T20:29:58.046Z,13.52
2022-09-20T20:32:59.562Z,17.17
2022-09-20T20:36:02.138Z,19.92
2022-09-20T20:39:03.788Z,25.75
2022-09-20T20:42:06.280Z,13.27
2022-09-20T20:45:08.646Z,14.65
2022-09-20T20:48:10.376Z,19.92
2022-09-20T20:51:14.640Z,14.13
2022-09-20T20:54:16.254Z,17.23
2022-09-20T20:57:19.014Z,14.85
2022-09-20T21:00:20.588Z,12.80
2022-09-20T21:03:22.132Z,15.40
2022-09-20T21:06:27.386Z,13.20
2022-09-20T21:09:28.935Z,16.63
2022-09-20T21:12:30.482Z,14.68
2022-09-20T21:15:32.224Z,17.85
2022-09-20T21:18:34.861Z,15.05
2022-09-20T21:21:44.381Z,15.15
2022-09-20T21:24:46.968Z,18.02
2022-09-20T21:27:49.436Z,13.05
2022-09-20T21:30:56.944Z,16.17
2022-09-20T21:34:00.515Z,14.65
2022-09-20T21:37:02.625Z,16.38
2022-09-20T21:40:04.536Z,17.88
2022-09-20T21:43:06.110Z,17.88
2022-09-20T21:46:12.366Z,14.95
2022-09-20T21:49:14.399Z,16.27
2022-09-20T21:52:15.952Z,17.75
2022-09-20T21:55:17.505Z,16.38
2022-09-20T21:58:19.055Z,23.48
2022-09-20T22:01:26.585Z,20.17
2022-09-20T22:04:29.064Z,21.92
2022-09-20T22:07:30.643Z,10.25
2022-09-20T22:10:32.238Z,21.00
2022-09-20T22:13:34.457Z,18.75
2022-09-20T22:16:38.775Z,20.50
2022-09-20T22:19:40.422Z,14.65
2022-09-20T22:22:42.057Z,15.43
2022-09-20T22:25:43.883Z,12.13
2022-09-20T22:28:45.504Z,16.83
2022-09-20T22:31:48.817Z,12.40
2022-09-20T22:34:50.420Z,13.57
2022-09-20T22:37:51.984Z,15.30
2022-09-20T22:40:55.188Z,17.33
2022-09-20T22:43:56.814Z,15.80
2022-09-20T22:46:58.380Z,18.67
2022-09-20T22:49:59.936Z,21.40
2022-09-20T22:53:01.482Z,25.50
2022-09-20T22:56:15.895Z,20.00
2022-09-20T22:59:17.520Z,15.13
2022-09-20T23:02:19.106Z,15.48
2022-09-20T23:05:20.671Z,11.70
2022-09-20T23:08:24.273Z,14.18
2022-09-20T23:11:27.053Z,10.93
2022-09-20T23:14:28.659Z,21.40
2022-09-20T23:17:30.224Z,14.93
2022-09-20T23:20:32.025Z,13.10
2022-09-20T23:23:33.727Z,16.80
2022-09-20T23:26:36.956Z,13.27
2022-09-20T23:29:38.574Z,9.85
2022-09-20T23:32:40.491Z,13.48
2022-09-20T23:35:46.185Z,18.38
2022-09-20T23:38:48.374Z,16.83
2022-09-20T23:41:51.302Z,10.07
2022-09-20T23:44:53.217Z,10.63
2022-09-20T23:47:54.880Z,13.05
2022-09-20T23:50:56.711Z,13.27
2022-09-20T23:53:58.681Z,10.15
2022-09-20T23:57:00.280Z,10.18
